createdAt,value
2018-03-29T00:01:53.754Z,4.76
2018-03-29T00:04:28.540Z,4.78
2018-03-29T00:07:03.755Z,4.84
2018-03-29T00:09:38.750Z,4.87
2018-03-29T00:12:13.758Z,4.81
2018-03-29T00:14:48.210Z,4.74
2018-03-29T00:17:22.920Z,4.70
2018-03-29T00:19:58.019Z,4.77
2018-03-29T00:22:33.155Z,4.83
2018-03-29T00:25:07.795Z,4.79
2018-03-29T00:27:42.842Z,4.85
2018-03-29T00:30:18.032Z,4.81
2018-03-29T00:32:52.758Z,4.81
2018-03-29T00:35:27.261Z,4.75
2018-03-29T00:38:02.072Z,4.70
2018-03-29T00:40:36.987Z,4.73
2018-03-29T00:43:11.883Z,4.74
2018-03-29T00:45:46.811Z,4.74
2018-03-29T00:48:23.230Z,4.73
2018-03-29T00:50:58.264Z,4.74
2018-03-29T00:53:44.166Z,4.81
2018-03-29T00:56:19.068Z,4.83
2018-03-29T00:58:53.931Z,4.88
2018-03-29T01:01:29.087Z,4.92
2018-03-29T01:04:03.703Z,4.85
2018-03-29T01:06:38.816Z,4.78
2018-03-29T01:09:14.280Z,4.75
2018-03-29T01:11:49.326Z,4.74
2018-03-29T01:14:24.190Z,4.77
2018-03-29T01:16:59.219Z,4.74
2018-03-29T01:19:34.155Z,4.71
2018-03-29T01:22:09.204Z,4.72
2018-03-29T01:24:44.035Z,4.72
2018-03-29T01:27:18.791Z,4.74
2018-03-29T01:29:53.494Z,4.73
2018-03-29T01:32:38.566Z,4.72
2018-03-29T01:35:14.388Z,4.70
2018-03-29T01:37:49.592Z,4.70
2018-03-29T01:40:24.606Z,4.74
2018-03-29T01:43:00.068Z,4.76
2018-03-29T01:45:35.043Z,4.74
2018-03-29T01:48:10.015Z,4.71
2018-03-29T01:50:45.172Z,4.70
2018-03-29T01:53:20.386Z,4.75
2018-03-29T01:55:55.212Z,4.78
2018-03-29T01:58:30.371Z,4.78
2018-03-29T02:01:05.155Z,4.79
2018-03-29T02:03:40.107Z,4.76
2018-03-29T02:06:15.070Z,4.81
2018-03-29T02:08:49.638Z,4.89
2018-03-29T02:11:24.519Z,4.83
2018-03-29T02:13:59.724Z,4.86
2018-03-29T02:16:35.019Z,4.90
2018-03-29T02:19:10.119Z,4.92
2018-03-29T02:21:45.190Z,4.95
2018-03-29T02:24:20.998Z,4.91
2018-03-29T02:26:56.189Z,4.94
2018-03-29T02:29:31.460Z,4.92
2018-03-29T02:32:06.328Z,4.85
2018-03-29T02:34:41.316Z,4.78
2018-03-29T02:37:16.327Z,4.75
2018-03-29T02:39:51.263Z,4.76
2018-03-29T02:42:26.211Z,4.80
2018-03-29T02:45:01.233Z,4.79
2018-03-29T02:47:36.759Z,4.86
2018-03-29T02:50:11.729Z,4.84
2018-03-29T02:52:46.450Z,4.85
2018-03-29T02:55:21.599Z,4.94
2018-03-29T02:57:56.344Z,5.04
2018-03-29T03:00:31.344Z,5.09
2018-03-29T03:03:06.816Z,5.11
2018-03-29T03:05:41.524Z,5.06
2018-03-29T03:08:16.618Z,5.09
2018-03-29T03:10:51.491Z,5.09
2018-03-29T03:13:26.390Z,5.10
2018-03-29T03:16:00.959Z,5.11
2018-03-29T03:18:35.764Z,5.13
2018-03-29T03:21:11.228Z,5.18
2018-03-29T03:23:46.243Z,5.26
2018-03-29T03:26:21.467Z,5.32
2018-03-29T03:28:56.515Z,5.34
2018-03-29T03:31:31.583Z,5.27
2018-03-29T03:34:06.783Z,5.23
2018-03-29T03:36:41.655Z,5.16
2018-03-29T03:39:16.655Z,5.20
2018-03-29T03:41:51.771Z,5.18
2018-03-29T03:44:26.660Z,5.20
2018-03-29T03:47:01.551Z,5.19
2018-03-29T03:49:36.535Z,5.16
2018-03-29T03:52:11.540Z,5.09
2018-03-29T03:54:46.771Z,5.06
2018-03-29T03:57:21.567Z,4.99
2018-03-29T03:59:56.532Z,4.94
2018-03-29T04:02:31.536Z,4.93
2018-03-29T04:05:06.290Z,4.91
2018-03-29T04:07:41.515Z,4.83
2018-03-29T04:10:16.615Z,4.82
2018-03-29T04:12:51.314Z,4.79
2018-03-29T04:15:26.690Z,4.78
2018-03-29T04:18:01.663Z,4.77
2018-03-29T04:20:36.573Z,4.78
2018-03-29T04:23:11.575Z,4.88
2018-03-29T04:25:45.994Z,4.97
2018-03-29T04:28:20.704Z,4.97
2018-03-29T04:30:55.667Z,5.00
2018-03-29T04:33:30.478Z,5.08
2018-03-29T04:36:05.207Z,5.10
2018-03-29T04:38:39.931Z,5.13
2018-03-29T04:41:15.403Z,5.12
2018-03-29T04:43:50.089Z,5.05
2018-03-29T04:46:25.523Z,5.08
2018-03-29T04:49:00.015Z,5.17
2018-03-29T04:51:35.016Z,5.10
2018-03-29T04:54:09.851Z,4.99
2018-03-29T04:56:44.924Z,4.91
2018-03-29T04:59:20.014Z,4.97
2018-03-29T05:01:54.873Z,5.04
2018-03-29T05:04:29.724Z,5.08
2018-03-29T05:07:04.714Z,5.11
2018-03-29T05:09:39.754Z,5.11
2018-03-29T05:12:15.071Z,5.09
2018-03-29T05:14:50.698Z,5.12
2018-03-29T05:17:26.279Z,5.05
2018-03-29T05:20:01.895Z,5.04
2018-03-29T05:22:36.843Z,5.11
2018-03-29T05:25:11.706Z,5.14
2018-03-29T05:27:52.035Z,5.18
2018-03-29T05:30:27.322Z,5.25
2018-03-29T05:33:02.611Z,5.29
2018-03-29T05:35:37.798Z,5.25
2018-03-29T05:38:12.911Z,5.23
2018-03-29T05:40:47.837Z,5.21
2018-03-29T05:43:23.209Z,5.22
2018-03-29T05:45:58.023Z,5.24
2018-03-29T05:48:32.875Z,5.19
2018-03-29T05:51:07.893Z,5.23
2018-03-29T05:53:42.799Z,5.29
2018-03-29T05:56:18.051Z,5.25
2018-03-29T05:58:52.963Z,5.25
2018-03-29T06:01:28.083Z,5.25
2018-03-29T06:04:02.964Z,5.32
2018-03-29T06:06:38.786Z,5.36
2018-03-29T06:09:15.322Z,5.39
2018-03-29T06:11:50.205Z,5.43
2018-03-29T06:17:22.415Z,5.47
2018-03-29T06:19:56.851Z,5.47
2018-03-29T06:22:32.006Z,5.48
2018-03-29T06:25:06.470Z,5.51
2018-03-29T06:27:41.455Z,5.55
2018-03-29T06:30:16.852Z,5.63
2018-03-29T06:32:51.868Z,5.66
2018-03-29T06:35:26.637Z,5.68
2018-03-29T06:38:01.245Z,5.70
2018-03-29T06:40:36.263Z,5.71
2018-03-29T06:43:11.216Z,5.74
2018-03-29T06:45:46.063Z,5.78
2018-03-29T06:48:21.188Z,5.87
2018-03-29T06:50:55.990Z,5.93
2018-03-29T06:53:31.651Z,6.02
2018-03-29T06:56:07.195Z,6.01
2018-03-29T06:58:42.226Z,5.97
2018-03-29T07:01:17.358Z,5.97
2018-03-29T07:03:52.043Z,5.92
2018-03-29T07:06:27.031Z,5.90
2018-03-29T07:09:01.845Z,5.95
2018-03-29T07:11:36.978Z,5.92
2018-03-29T07:14:12.486Z,5.93
2018-03-29T07:16:47.415Z,5.92
2018-03-29T07:19:22.461Z,5.97
2018-03-29T07:21:57.272Z,6.01
2018-03-29T07:24:32.219Z,6.03
2018-03-29T07:27:07.160Z,6.07
2018-03-29T07:29:41.556Z,6.08
2018-03-29T07:32:17.198Z,6.09
2018-03-29T07:34:51.614Z,6.10
2018-03-29T07:37:26.654Z,6.13
2018-03-29T07:40:01.400Z,6.21
2018-03-29T07:42:36.199Z,6.27
2018-03-29T07:45:10.754Z,6.28
2018-03-29T07:47:45.399Z,6.30
2018-03-29T07:50:20.044Z,6.39
2018-03-29T07:52:54.584Z,6.48
2018-03-29T07:55:29.548Z,6.57
2018-03-29T07:58:04.312Z,6.58
2018-03-29T08:00:39.207Z,6.57
2018-03-29T08:03:13.661Z,6.60
2018-03-29T08:05:48.654Z,6.68
2018-03-29T08:08:23.510Z,6.71
2018-03-29T08:10:58.430Z,6.80
2018-03-29T08:13:34.119Z,6.84
2018-03-29T08:16:08.887Z,6.86
2018-03-29T08:18:43.643Z,6.86
2018-03-29T08:21:18.030Z,6.86
2018-03-29T08:23:53.340Z,6.85
2018-03-29T08:26:28.515Z,6.82
2018-03-29T08:29:03.751Z,6.81
2018-03-29T08:31:38.455Z,6.81
2018-03-29T08:34:15.772Z,6.81
2018-03-29T08:36:50.447Z,6.83
2018-03-29T08:39:25.679Z,6.85
2018-03-29T08:42:00.663Z,6.81
2018-03-29T08:44:35.540Z,6.82
2018-03-29T08:47:10.607Z,6.79
2018-03-29T08:49:45.503Z,6.78
2018-03-29T08:52:20.467Z,6.78
2018-03-29T08:54:55.265Z,6.75
2018-03-29T08:57:30.010Z,6.74
2018-03-29T09:00:04.910Z,6.72
2018-03-29T09:02:39.721Z,6.68
2018-03-29T09:05:15.831Z,6.61
2018-03-29T09:07:50.723Z,6.72
2018-03-29T09:10:25.623Z,6.90
2018-03-29T09:13:00.570Z,7.14
2018-03-29T09:15:35.616Z,7.34
2018-03-29T09:18:10.503Z,7.47
2018-03-29T09:20:45.470Z,7.52
2018-03-29T09:23:20.933Z,7.56
2018-03-29T09:25:55.638Z,7.64
2018-03-29T09:28:30.637Z,7.65
2018-03-29T09:31:06.463Z,7.60
2018-03-29T09:33:40.922Z,7.55
2018-03-29T09:36:15.907Z,7.50
2018-03-29T09:38:50.608Z,7.45
2018-03-29T09:41:25.675Z,7.37
2018-03-29T09:44:00.172Z,7.30
2018-03-29T09:46:34.768Z,7.41
2018-03-29T09:49:09.766Z,7.59
2018-03-29T09:51:44.677Z,7.73
2018-03-29T09:54:19.863Z,7.77
2018-03-29T09:56:54.798Z,7.71
2018-03-29T09:59:29.891Z,7.68
2018-03-29T10:02:10.435Z,7.69
2018-03-29T10:18:11.036Z,7.64
2018-03-29T10:20:46.396Z,7.68
2018-03-29T10:23:21.911Z,7.77
2018-03-29T10:25:56.519Z,7.90
2018-03-29T10:28:31.671Z,7.98
2018-03-29T10:31:06.699Z,7.95
2018-03-29T10:33:41.183Z,7.81
2018-03-29T10:36:16.300Z,7.67
2018-03-29T10:38:51.784Z,7.62
2018-03-29T10:41:26.786Z,7.61
2018-03-29T10:44:01.391Z,7.55
2018-03-29T10:46:36.292Z,7.52
2018-03-29T10:49:11.435Z,7.57
2018-03-29T10:51:46.809Z,7.63
2018-03-29T10:54:22.259Z,7.74
2018-03-29T10:56:57.319Z,7.81
2018-03-29T10:59:32.962Z,7.92
2018-03-29T11:02:07.377Z,8.16
2018-03-29T11:04:42.195Z,8.40
2018-03-29T11:07:17.174Z,8.54
2018-03-29T11:09:51.955Z,8.80
2018-03-29T11:12:27.077Z,9.02
2018-03-29T11:15:01.855Z,9.03
2018-03-29T11:17:37.154Z,9.02
2018-03-29T11:20:12.048Z,8.99
2018-03-29T11:22:47.035Z,8.98
2018-03-29T11:25:21.946Z,8.89
2018-03-29T11:27:56.974Z,8.79
2018-03-29T11:30:32.984Z,8.67
2018-03-29T11:33:07.927Z,8.60
2018-03-29T11:35:43.060Z,8.59
2018-03-29T11:38:18.279Z,8.55
2018-03-29T11:40:53.075Z,8.62
2018-03-29T11:43:28.261Z,8.74
2018-03-29T11:46:04.071Z,8.84
2018-03-29T11:48:38.984Z,8.90
2018-03-29T11:51:13.609Z,8.96
2018-03-29T11:53:48.647Z,8.98
2018-03-29T11:56:23.341Z,9.03
2018-03-29T11:58:58.113Z,9.00
2018-03-29T12:01:33.255Z,9.01
2018-03-29T12:04:08.112Z,8.96
2018-03-29T12:06:43.099Z,8.99
2018-03-29T12:09:18.411Z,9.06
2018-03-29T12:11:53.146Z,9.10
2018-03-29T12:14:28.399Z,9.12
2018-03-29T12:17:03.155Z,9.04
2018-03-29T12:19:38.106Z,9.01
2018-03-29T12:22:13.268Z,8.96
2018-03-29T12:24:48.150Z,8.90
2018-03-29T12:27:23.442Z,8.87
2018-03-29T12:29:58.012Z,8.85
2018-03-29T12:32:33.163Z,8.94
2018-03-29T12:35:08.088Z,9.01
2018-03-29T12:37:42.474Z,9.13
2018-03-29T12:40:18.315Z,9.20
2018-03-29T12:42:53.244Z,9.30
2018-03-29T12:45:28.488Z,9.52
2018-03-29T12:48:04.011Z,9.73
2018-03-29T12:50:38.798Z,9.88
2018-03-29T12:53:13.783Z,9.96
2018-03-29T12:55:49.172Z,10.00
2018-03-29T12:58:25.078Z,9.98
2018-03-29T13:01:00.108Z,9.88
2018-03-29T13:03:34.767Z,9.73
2018-03-29T13:06:09.723Z,9.66
2018-03-29T13:08:44.502Z,9.56
2018-03-29T13:11:19.732Z,9.34
2018-03-29T13:13:54.062Z,9.17
2018-03-29T13:16:29.535Z,9.12
2018-03-29T13:19:04.235Z,9.17
2018-03-29T13:21:39.339Z,9.30
2018-03-29T13:24:14.335Z,9.43
2018-03-29T13:26:49.802Z,9.52
2018-03-29T13:29:24.624Z,9.55
2018-03-29T13:31:59.776Z,9.63
2018-03-29T13:34:34.775Z,9.72
2018-03-29T13:37:09.656Z,9.73
2018-03-29T13:39:44.723Z,9.71
2018-03-29T13:42:19.611Z,9.70
2018-03-29T13:44:54.531Z,9.62
2018-03-29T13:47:29.591Z,9.55
2018-03-29T13:50:03.890Z,9.40
2018-03-29T13:52:39.443Z,9.21
2018-03-29T13:55:13.843Z,9.18
2018-03-29T13:57:49.395Z,9.21
2018-03-29T14:00:24.692Z,9.23
2018-03-29T14:02:59.859Z,9.21
2018-03-29T14:05:34.848Z,9.15
2018-03-29T14:08:09.547Z,9.09
2018-03-29T14:10:44.590Z,9.00
2018-03-29T14:13:19.619Z,8.94
2018-03-29T14:15:54.441Z,8.93
2018-03-29T14:18:29.510Z,8.76
2018-03-29T14:21:05.323Z,8.66
2018-03-29T14:23:39.995Z,8.55
2018-03-29T14:26:14.883Z,8.44
2018-03-29T14:28:50.027Z,7.99
2018-03-29T14:31:25.067Z,7.72
2018-03-29T14:34:00.476Z,7.68
2018-03-29T14:36:35.378Z,7.80
2018-03-29T14:39:10.483Z,7.97
2018-03-29T14:41:45.150Z,8.14
2018-03-29T14:44:20.662Z,8.21
2018-03-29T14:46:55.643Z,8.31
2018-03-29T14:49:30.685Z,8.34
2018-03-29T14:52:05.591Z,8.37
2018-03-29T14:54:40.471Z,8.55
2018-03-29T14:57:15.239Z,8.80
2018-03-29T14:59:50.694Z,8.96
2018-03-29T15:02:25.901Z,9.06
2018-03-29T15:05:00.663Z,9.17
2018-03-29T15:07:35.623Z,9.33
2018-03-29T15:10:10.863Z,9.55
2018-03-29T15:12:45.750Z,9.76
2018-03-29T15:15:20.927Z,9.81
2018-03-29T15:17:55.779Z,9.90
2018-03-29T15:20:30.745Z,9.96
2018-03-29T15:23:05.666Z,10.09
2018-03-29T15:25:40.663Z,10.15
2018-03-29T15:28:17.012Z,10.12
2018-03-29T15:30:52.783Z,10.08
2018-03-29T15:33:27.787Z,10.15
2018-03-29T15:36:02.771Z,10.23
2018-03-29T15:38:38.411Z,10.24
2018-03-29T15:41:14.703Z,10.16
2018-03-29T15:43:49.883Z,10.14
2018-03-29T15:46:24.974Z,10.09
2018-03-29T15:48:59.906Z,10.15
2018-03-29T15:51:34.894Z,10.23
2018-03-29T15:54:09.855Z,10.20
2018-03-29T15:56:44.971Z,10.06
2018-03-29T15:59:19.995Z,9.96
2018-03-29T16:01:54.864Z,9.88
2018-03-29T16:04:29.872Z,9.79
2018-03-29T16:07:04.759Z,9.75
2018-03-29T16:09:39.862Z,9.65
2018-03-29T16:12:15.151Z,9.57
2018-03-29T16:14:50.052Z,9.41
2018-03-29T16:17:25.124Z,9.31
2018-03-29T16:19:59.982Z,9.24
2018-03-29T16:22:34.861Z,9.20
2018-03-29T16:25:09.880Z,9.19
2018-03-29T16:27:44.863Z,9.22
2018-03-29T16:30:19.590Z,9.20
2018-03-29T16:32:54.503Z,9.20
2018-03-29T16:35:29.386Z,9.21
2018-03-29T16:38:04.883Z,9.17
2018-03-29T16:40:40.866Z,9.14
2018-03-29T16:43:15.524Z,9.10
2018-03-29T16:45:50.920Z,9.11
2018-03-29T16:48:26.199Z,9.07
2018-03-29T16:51:01.099Z,8.95
2018-03-29T16:53:36.127Z,8.81
2018-03-29T16:56:11.477Z,8.67
2018-03-29T16:58:46.064Z,8.57
2018-03-29T17:01:21.503Z,8.50
2018-03-29T17:03:56.266Z,8.44
2018-03-29T17:06:31.492Z,8.45
2018-03-29T17:09:06.119Z,8.46
2018-03-29T17:11:41.113Z,8.54
2018-03-29T17:14:22.736Z,8.62
2018-03-29T17:16:58.156Z,8.66
2018-03-29T17:19:33.458Z,8.77
2018-03-29T17:22:08.495Z,8.82
2018-03-29T17:24:44.007Z,8.88
2018-03-29T17:27:19.382Z,8.91
2018-03-29T17:29:54.330Z,8.89
2018-03-29T17:32:29.450Z,8.86
2018-03-29T17:35:04.167Z,8.85
2018-03-29T17:37:39.153Z,8.84
2018-03-29T17:40:14.478Z,8.80
2018-03-29T17:42:49.583Z,8.76
2018-03-29T17:45:24.691Z,8.71
2018-03-29T17:47:59.526Z,8.61
2018-03-29T17:50:34.722Z,8.54
2018-03-29T17:53:09.322Z,8.45
2018-03-29T17:55:44.136Z,8.37
2018-03-29T17:58:19.406Z,8.28
2018-03-29T18:00:54.361Z,8.21
2018-03-29T18:03:29.877Z,8.16
2018-03-29T18:06:04.815Z,8.11
2018-03-29T18:08:39.424Z,8.07
2018-03-29T18:11:14.720Z,8.05
2018-03-29T18:13:50.298Z,7.96
2018-03-29T18:16:25.555Z,7.94
2018-03-29T18:19:00.311Z,7.93
2018-03-29T18:21:35.763Z,7.89
2018-03-29T18:24:10.846Z,7.85
2018-03-29T18:26:46.433Z,7.83
2018-03-29T18:29:21.244Z,7.84
2018-03-29T18:31:56.320Z,7.80
2018-03-29T18:34:31.523Z,7.72
2018-03-29T18:37:06.570Z,7.64
2018-03-29T18:39:41.743Z,7.61
2018-03-29T18:42:17.569Z,7.58
2018-03-29T18:44:52.856Z,7.53
2018-03-29T18:47:27.487Z,7.51
2018-03-29T18:50:02.399Z,7.39
2018-03-29T18:52:36.918Z,7.26
2018-03-29T18:55:11.616Z,7.20
2018-03-29T18:57:47.427Z,7.11
2018-03-29T19:00:22.355Z,7.06
2018-03-29T19:02:57.603Z,7.03
2018-03-29T19:05:32.851Z,6.98
2018-03-29T19:08:08.415Z,6.92
2018-03-29T19:10:43.544Z,6.80
2018-03-29T19:13:18.999Z,6.73
2018-03-29T19:15:53.515Z,6.69
2018-03-29T19:18:28.919Z,6.61
2018-03-29T19:21:03.855Z,6.57
2018-03-29T19:23:39.042Z,6.54
2018-03-29T19:26:14.448Z,6.54
2018-03-29T19:28:49.866Z,6.54
2018-03-29T19:31:24.886Z,6.45
2018-03-29T19:34:00.021Z,6.41
2018-03-29T19:36:35.227Z,6.39
2018-03-29T19:39:10.194Z,6.36
2018-03-29T19:41:44.924Z,6.36
2018-03-29T19:44:19.959Z,6.34
2018-03-29T19:46:55.686Z,6.26
2018-03-29T19:49:31.006Z,6.22
2018-03-29T19:52:05.727Z,6.20
2018-03-29T19:54:40.830Z,6.13
2018-03-29T19:57:27.798Z,6.11
2018-03-29T20:00:03.077Z,6.11
2018-03-29T20:02:38.410Z,6.11
2018-03-29T20:05:13.786Z,6.08
2018-03-29T20:07:48.795Z,6.05
2018-03-29T20:10:24.056Z,6.04
2018-03-29T20:12:59.631Z,5.90
2018-03-29T20:15:35.299Z,6.01
2018-03-29T20:18:10.324Z,5.98
2018-03-29T20:20:45.806Z,5.95
2018-03-29T20:23:21.014Z,5.92
2018-03-29T20:25:56.187Z,5.88
2018-03-29T20:28:31.200Z,5.86
2018-03-29T20:31:06.497Z,5.85
2018-03-29T20:33:41.838Z,5.80
2018-03-29T20:36:18.183Z,5.78
2018-03-29T20:38:53.253Z,5.77
2018-03-29T20:41:28.223Z,5.73
2018-03-29T20:44:03.584Z,5.64
2018-03-29T20:46:38.355Z,5.57
2018-03-29T20:49:13.848Z,5.56
2018-03-29T20:51:49.128Z,5.53
2018-03-29T20:54:24.111Z,5.51
2018-03-29T20:56:59.000Z,5.50
2018-03-29T20:59:34.203Z,5.42
2018-03-29T21:02:09.974Z,5.33
2018-03-29T21:04:44.707Z,5.29
2018-03-29T21:07:20.135Z,5.26
2018-03-29T21:09:55.272Z,5.18
2018-03-29T21:12:31.083Z,5.11
2018-03-29T21:15:05.514Z,5.05
2018-03-29T21:17:40.182Z,4.99
2018-03-29T21:20:15.231Z,4.97
2018-03-29T21:22:50.370Z,4.93
2018-03-29T21:25:25.390Z,4.90
2018-03-29T21:28:00.423Z,4.88
2018-03-29T21:30:34.878Z,4.88
2018-03-29T21:33:09.398Z,4.88
2018-03-29T21:35:44.417Z,4.89
2018-03-29T21:38:20.047Z,4.88
2018-03-29T21:40:54.662Z,4.88
2018-03-29T21:43:30.006Z,4.87
2018-03-29T21:46:05.206Z,4.86
2018-03-29T21:48:40.293Z,4.81
2018-03-29T21:51:15.331Z,4.79
2018-03-29T21:53:50.575Z,4.74
2018-03-29T21:56:25.504Z,4.69
2018-03-29T21:59:01.172Z,4.64
2018-03-29T22:01:36.360Z,4.62
2018-03-29T22:04:11.390Z,4.60
2018-03-29T22:06:46.414Z,4.57
2018-03-29T22:09:21.922Z,4.55
2018-03-29T22:11:57.267Z,4.56
2018-03-29T22:14:32.446Z,4.54
2018-03-29T22:17:07.339Z,4.53
2018-03-29T22:19:43.214Z,4.53
2018-03-29T22:22:18.575Z,4.53
2018-03-29T22:24:53.703Z,4.53
2018-03-29T22:27:28.226Z,4.49
2018-03-29T22:30:03.362Z,4.45
2018-03-29T22:32:38.697Z,4.37
2018-03-29T22:35:14.226Z,4.33
2018-03-29T22:37:49.294Z,4.29
2018-03-29T22:40:24.396Z,4.26
2018-03-29T22:42:59.090Z,4.25
2018-03-29T22:45:34.239Z,4.19
2018-03-29T22:48:08.456Z,4.13
2018-03-29T22:50:43.396Z,4.10
2018-03-29T22:53:18.682Z,4.10
2018-03-29T22:55:54.243Z,4.06
2018-03-29T22:58:29.334Z,4.01
2018-03-29T23:01:04.041Z,3.96
2018-03-29T23:03:39.283Z,3.95
2018-03-29T23:06:13.479Z,3.92
2018-03-29T23:08:48.418Z,3.90
2018-03-29T23:11:23.690Z,3.83
2018-03-29T23:13:59.319Z,3.73
2018-03-29T23:16:33.898Z,3.75
2018-03-29T23:19:08.958Z,3.79
2018-03-29T23:21:44.316Z,3.83
2018-03-29T23:24:18.595Z,3.76
2018-03-29T23:26:53.331Z,3.68
2018-03-29T23:29:28.490Z,3.68
2018-03-29T23:32:03.444Z,3.66
2018-03-29T23:34:38.054Z,3.66
2018-03-29T23:37:13.117Z,3.61
2018-03-29T23:39:48.441Z,3.63
2018-03-29T23:42:23.843Z,3.60
2018-03-29T23:44:58.939Z,3.53
2018-03-29T23:47:34.561Z,3.49
2018-03-29T23:50:09.523Z,3.46
2018-03-29T23:52:44.905Z,3.42
2018-03-29T23:55:20.482Z,3.36
2018-03-29T23:58:06.624Z,3.33
